createdAt,value
2019-02-21T00:00:31.573Z,80.88
2019-02-21T00:05:36.907Z,80.91
2019-02-21T00:08:11.602Z,80.32
2019-02-21T00:10:42.024Z,80.38
2019-02-21T00:13:13.366Z,80.38
2019-02-21T00:15:43.836Z,80.65
2019-02-21T00:18:13.755Z,80.98
2019-02-21T00:20:44.199Z,81.06
2019-02-21T00:23:14.994Z,80.83
2019-02-21T00:25:47.574Z,81.32
2019-02-21T00:28:19.627Z,81.42
2019-02-21T00:30:50.955Z,81.13
2019-02-21T00:33:23.912Z,81.08
2019-02-21T00:35:56.203Z,80.94
2019-02-21T00:38:27.672Z,81.42
2019-02-21T00:41:02.417Z,81.34
2019-02-21T00:43:32.888Z,81.71
2019-02-21T00:46:04.787Z,82.00
2019-02-21T00:48:36.311Z,82.01
2019-02-21T00:51:06.732Z,82.04
2019-02-21T00:53:38.056Z,82.34
2019-02-21T00:56:08.624Z,82.67
2019-02-21T00:58:37.784Z,82.81
2019-02-21T01:01:07.310Z,82.82
2019-02-21T01:03:40.756Z,82.96
2019-02-21T01:06:12.170Z,82.83
2019-02-21T01:08:43.033Z,83.12
2019-02-21T01:11:14.795Z,83.04
2019-02-21T01:13:47.033Z,83.12
2019-02-21T01:16:18.071Z,83.18
2019-02-21T01:18:48.817Z,82.85
2019-02-21T01:21:18.676Z,82.82
2019-02-21T01:23:48.569Z,82.88
2019-02-21T01:26:19.954Z,82.88
2019-02-21T01:28:50.546Z,82.96
2019-02-21T01:31:23.994Z,82.97
2019-02-21T01:33:55.608Z,83.12
2019-02-21T01:36:26.068Z,83.03
2019-02-21T01:38:57.014Z,83.04
2019-02-21T01:41:27.633Z,82.84
2019-02-21T01:43:57.398Z,82.87
2019-02-21T01:46:27.250Z,82.50
2019-02-21T01:48:59.479Z,82.58
2019-02-21T01:51:28.649Z,82.53
2019-02-21T01:53:58.743Z,82.58
2019-02-21T01:56:29.361Z,82.80
2019-02-21T01:59:00.468Z,82.77
2019-02-21T02:01:31.895Z,82.26
2019-02-21T02:06:35.679Z,82.50
2019-02-21T02:09:07.080Z,82.37
2019-02-21T02:11:37.499Z,82.17
2019-02-21T02:14:07.611Z,82.46
2019-02-21T02:16:39.016Z,82.21
2019-02-21T02:19:08.053Z,82.31
2019-02-21T02:21:38.119Z,82.63
2019-02-21T02:24:08.972Z,82.39
2019-02-21T02:26:39.633Z,82.50
2019-02-21T02:29:11.052Z,82.59
2019-02-21T02:31:44.414Z,82.33
2019-02-21T02:34:15.864Z,81.95
2019-02-21T02:36:44.525Z,82.01
2019-02-21T02:39:14.958Z,81.97
2019-02-21T02:41:46.355Z,81.71
2019-02-21T02:44:16.336Z,81.77
2019-02-21T02:46:46.255Z,81.81
2019-02-21T02:49:15.340Z,81.76
2019-02-21T02:51:47.004Z,81.67
2019-02-21T02:54:17.420Z,81.83
2019-02-21T02:56:48.788Z,82.16
2019-02-21T02:59:18.454Z,82.04
2019-02-21T03:01:48.821Z,82.31
2019-02-21T03:04:17.502Z,82.20
2019-02-21T03:06:46.605Z,82.34
2019-02-21T03:09:15.758Z,82.63
2019-02-21T03:11:47.212Z,82.64
2019-02-21T03:14:18.640Z,82.93
2019-02-21T03:16:48.987Z,82.65
2019-02-21T03:19:19.372Z,82.98
2019-02-21T03:21:49.869Z,82.88
2019-02-21T03:24:22.714Z,82.75
2019-02-21T03:26:52.393Z,82.69
2019-02-21T03:29:23.820Z,82.81
2019-02-21T03:31:55.907Z,82.85
2019-02-21T03:34:25.809Z,83.17
2019-02-21T03:36:56.666Z,82.84
2019-02-21T03:39:26.544Z,83.07
2019-02-21T03:41:57.365Z,82.92
2019-02-21T03:44:27.410Z,83.26
2019-02-21T03:46:59.787Z,83.07
2019-02-21T03:49:30.552Z,83.31
2019-02-21T03:52:00.877Z,83.21
2019-02-21T03:54:31.689Z,83.12
2019-02-21T03:57:02.389Z,83.13
2019-02-21T03:59:33.777Z,82.92
2019-02-21T04:02:08.777Z,82.89
2019-02-21T04:04:39.421Z,82.82
2019-02-21T04:07:12.876Z,82.77
2019-02-21T04:09:45.621Z,83.06
2019-02-21T04:12:16.245Z,83.04
2019-02-21T04:14:47.705Z,83.16
2019-02-21T04:19:53.461Z,83.01
2019-02-21T04:22:24.143Z,82.85
2019-02-21T04:24:55.604Z,83.11
2019-02-21T04:27:26.227Z,83.11
2019-02-21T04:29:57.653Z,83.17
2019-02-21T04:32:27.339Z,83.21
2019-02-21T04:34:57.167Z,83.24
2019-02-21T04:37:28.534Z,83.19
2019-02-21T04:39:59.177Z,83.54
2019-02-21T04:42:30.552Z,83.44
2019-02-21T04:45:00.580Z,83.26
2019-02-21T04:47:31.041Z,83.35
2019-02-21T04:50:02.486Z,83.38
2019-02-21T04:52:32.858Z,83.39
2019-02-21T04:55:03.297Z,83.44
2019-02-21T04:57:36.117Z,83.70
2019-02-21T05:00:08.734Z,83.65
2019-02-21T05:02:39.457Z,83.53
2019-02-21T05:05:12.012Z,83.73
2019-02-21T05:07:42.449Z,83.63
2019-02-21T05:10:13.242Z,84.11
2019-02-21T05:12:43.282Z,84.19
2019-02-21T05:15:14.063Z,83.70
2019-02-21T05:17:44.734Z,83.87
2019-02-21T05:20:15.147Z,84.09
2019-02-21T05:22:46.599Z,83.89
2019-02-21T05:25:17.269Z,83.79
2019-02-21T05:27:51.280Z,83.56
2019-02-21T05:30:22.543Z,83.48
2019-02-21T05:33:07.038Z,83.68
2019-02-21T05:35:39.141Z,84.02
2019-02-21T05:38:17.906Z,83.58
2019-02-21T05:40:55.065Z,83.79
2019-02-21T05:43:37.335Z,84.06
2019-02-21T05:46:19.144Z,83.89
2019-02-21T05:48:57.486Z,83.41
2019-02-21T05:51:43.540Z,83.31
2019-02-21T05:54:14.289Z,83.29
2019-02-21T05:56:51.392Z,83.26
2019-02-21T05:59:42.480Z,83.22
2019-02-21T06:02:23.609Z,83.22
2019-02-21T06:05:11.052Z,83.21
2019-02-21T06:07:43.138Z,83.63
2019-02-21T06:10:14.825Z,84.21
2019-02-21T06:12:49.098Z,84.10
2019-02-21T06:15:19.831Z,84.41
2019-02-21T06:18:08.008Z,84.10
2019-02-21T06:20:43.721Z,84.13
2019-02-21T06:23:25.113Z,84.42
2019-02-21T06:26:09.356Z,84.56
2019-02-21T06:28:40.927Z,85.96
2019-02-21T06:31:11.154Z,86.52
2019-02-21T06:33:41.879Z,85.35
2019-02-21T06:36:12.533Z,84.36
2019-02-21T06:38:43.145Z,85.36
2019-02-21T06:41:13.768Z,83.93
2019-02-21T06:43:44.213Z,83.61
2019-02-21T06:46:19.198Z,82.88
2019-02-21T06:48:51.481Z,83.74
2019-02-21T06:51:23.163Z,82.16
2019-02-21T06:53:56.781Z,81.26
2019-02-21T06:56:26.507Z,81.23
2019-02-21T06:58:57.195Z,81.63
2019-02-21T07:01:32.658Z,81.50
2019-02-21T07:04:02.364Z,81.46
2019-02-21T07:06:33.834Z,80.95
2019-02-21T07:09:04.498Z,80.14
2019-02-21T07:11:35.220Z,79.73
2019-02-21T07:14:06.654Z,78.72
2019-02-21T07:16:38.044Z,77.50
2019-02-21T07:19:10.900Z,75.36
2019-02-21T07:21:42.394Z,74.04
2019-02-21T07:24:12.241Z,74.30
2019-02-21T07:26:42.852Z,74.56
2019-02-21T07:29:14.295Z,72.71
2019-02-21T07:31:44.881Z,67.55
2019-02-21T07:34:13.961Z,64.49
2019-02-21T07:36:45.476Z,61.65
2019-02-21T07:39:18.498Z,61.65
2019-02-21T07:41:50.105Z,59.51
2019-02-21T07:44:21.489Z,58.10
2019-02-21T07:46:53.500Z,56.81
2019-02-21T07:49:25.721Z,55.53
2019-02-21T07:51:57.199Z,55.44
2019-02-21T07:54:28.461Z,55.59
2019-02-21T07:57:01.687Z,52.79
2019-02-21T07:59:32.117Z,52.69
2019-02-21T08:02:07.207Z,50.76
2019-02-21T08:04:37.190Z,49.76
2019-02-21T08:07:08.945Z,45.18
2019-02-21T08:09:41.645Z,44.08
2019-02-21T08:12:10.957Z,44.65
2019-02-21T08:14:43.430Z,42.43
2019-02-21T08:17:16.092Z,41.72
2019-02-21T08:19:47.309Z,41.53
2019-02-21T08:22:16.972Z,40.93
2019-02-21T08:24:48.371Z,40.08
2019-02-21T08:27:19.280Z,39.64
2019-02-21T08:29:49.975Z,40.08
2019-02-21T08:32:20.717Z,41.66
2019-02-21T08:34:52.620Z,41.13
2019-02-21T08:37:22.550Z,41.61
2019-02-21T08:39:52.983Z,42.74
2019-02-21T08:42:22.062Z,41.89
2019-02-21T08:44:55.379Z,42.07
2019-02-21T08:47:26.227Z,42.55
2019-02-21T08:49:55.947Z,44.36
2019-02-21T08:52:30.004Z,44.58
2019-02-21T08:55:00.678Z,47.30
2019-02-21T08:57:32.338Z,48.63
2019-02-21T09:00:05.334Z,50.31
2019-02-21T09:02:36.179Z,50.88
2019-02-21T09:05:09.353Z,50.94
2019-02-21T09:07:39.439Z,53.47
2019-02-21T09:10:13.744Z,54.99
2019-02-21T09:12:48.176Z,53.61
2019-02-21T09:15:20.013Z,54.73
2019-02-21T09:17:54.207Z,53.30
2019-02-21T09:20:24.755Z,52.76
2019-02-21T09:22:54.633Z,52.39
2019-02-21T09:25:25.448Z,53.93
2019-02-21T09:27:56.049Z,53.85
2019-02-21T09:30:25.972Z,55.73
2019-02-21T09:32:58.985Z,55.76
2019-02-21T09:35:30.383Z,53.61
2019-02-21T09:38:00.269Z,55.11
2019-02-21T09:40:30.666Z,56.16
2019-02-21T09:43:03.957Z,55.17
2019-02-21T09:45:37.264Z,55.76
2019-02-21T09:48:13.839Z,56.44
2019-02-21T09:50:43.938Z,55.47
2019-02-21T09:53:14.286Z,54.98
2019-02-21T09:55:44.741Z,55.67
2019-02-21T09:58:16.146Z,56.37
2019-02-21T10:00:46.572Z,58.46
2019-02-21T10:03:16.306Z,59.58
2019-02-21T10:05:46.700Z,59.92
2019-02-21T10:08:17.553Z,60.32
2019-02-21T10:10:47.406Z,60.69
2019-02-21T10:13:17.036Z,62.33
2019-02-21T10:15:48.555Z,61.41
2019-02-21T10:18:19.429Z,60.97
2019-02-21T10:20:50.291Z,60.23
2019-02-21T10:23:21.107Z,60.93
2019-02-21T10:25:52.613Z,60.70
2019-02-21T10:28:23.032Z,61.14
2019-02-21T10:30:55.769Z,62.61
2019-02-21T10:33:26.261Z,62.24
2019-02-21T10:35:57.108Z,60.76
2019-02-21T10:38:27.731Z,60.07
2019-02-21T10:40:58.195Z,61.14
2019-02-21T10:43:27.909Z,60.14
2019-02-21T10:45:58.844Z,59.51
2019-02-21T10:48:29.274Z,59.43
2019-02-21T10:51:01.259Z,60.02
2019-02-21T10:53:31.762Z,60.26
2019-02-21T10:56:00.874Z,60.55
2019-02-21T10:58:31.287Z,59.41
2019-02-21T11:03:38.548Z,60.36
2019-02-21T11:06:16.053Z,60.57
2019-02-21T11:08:46.088Z,59.99
2019-02-21T11:11:17.283Z,60.08
2019-02-21T11:13:47.221Z,58.07
2019-02-21T11:16:18.056Z,56.13
2019-02-21T11:18:50.903Z,56.74
2019-02-21T11:21:21.587Z,58.08
2019-02-21T11:23:53.081Z,57.98
2019-02-21T11:26:23.584Z,57.89
2019-02-21T11:28:54.582Z,58.58
2019-02-21T11:31:27.961Z,57.89
2019-02-21T11:33:57.773Z,57.38
2019-02-21T11:36:31.255Z,57.12
2019-02-21T11:39:03.987Z,56.58
2019-02-21T11:41:34.611Z,57.33
2019-02-21T11:44:05.523Z,57.38
2019-02-21T11:46:36.975Z,57.11
2019-02-21T11:49:09.387Z,56.32
2019-02-21T11:51:39.956Z,55.95
2019-02-21T11:54:14.637Z,55.53
2019-02-21T11:56:45.908Z,56.08
2019-02-21T11:59:18.189Z,55.86
2019-02-21T12:01:49.549Z,55.91
2019-02-21T12:04:19.407Z,56.46
2019-02-21T12:06:50.172Z,56.33
2019-02-21T12:09:20.787Z,56.17
2019-02-21T12:11:50.841Z,56.08
2019-02-21T12:14:23.130Z,56.99
2019-02-21T12:16:53.579Z,57.42
2019-02-21T12:19:24.016Z,55.86
2019-02-21T12:21:59.169Z,56.27
2019-02-21T12:24:26.991Z,54.48
2019-02-21T12:26:56.681Z,54.51
2019-02-21T12:29:27.112Z,52.50
2019-02-21T12:31:58.005Z,50.35
2019-02-21T12:34:28.600Z,49.55
2019-02-21T12:36:58.912Z,49.29
2019-02-21T12:39:29.691Z,49.88
2019-02-21T12:41:59.783Z,50.26
2019-02-21T12:44:30.189Z,50.60
2019-02-21T12:47:02.489Z,51.39
2019-02-21T12:49:33.768Z,51.47
2019-02-21T12:52:08.886Z,51.62
2019-02-21T12:54:39.177Z,51.60
2019-02-21T12:57:14.836Z,51.88
2019-02-21T12:59:46.467Z,51.65
2019-02-21T13:04:50.643Z,50.22
2019-02-21T13:07:22.093Z,50.97
2019-02-21T13:09:52.538Z,51.47
2019-02-21T13:12:22.605Z,50.86
2019-02-21T13:14:53.044Z,52.52
2019-02-21T13:17:22.946Z,51.63
2019-02-21T13:19:52.592Z,52.26
2019-02-21T13:22:24.088Z,53.10
2019-02-21T13:24:53.739Z,52.97
2019-02-21T13:27:25.165Z,53.73
2019-02-21T13:29:54.829Z,54.31
2019-02-21T13:32:23.100Z,54.48
2019-02-21T13:34:51.396Z,55.10
2019-02-21T13:37:28.876Z,55.26
2019-02-21T13:39:55.101Z,55.33
2019-02-21T13:42:28.195Z,54.79
2019-02-21T13:44:57.546Z,54.30
2019-02-21T13:47:30.802Z,53.83
2019-02-21T13:50:01.264Z,52.85
2019-02-21T13:52:32.663Z,52.46
2019-02-21T13:57:38.603Z,53.09
2019-02-21T14:00:16.947Z,52.58
2019-02-21T14:02:49.012Z,53.19
2019-02-21T14:05:18.858Z,53.24
2019-02-21T14:07:48.719Z,53.74
2019-02-21T14:10:19.956Z,54.08
2019-02-21T14:12:50.580Z,54.91
2019-02-21T14:15:23.475Z,55.31
2019-02-21T14:17:52.611Z,54.21
2019-02-21T14:20:25.088Z,53.10
2019-02-21T14:22:53.610Z,52.63
2019-02-21T14:25:21.901Z,52.71
2019-02-21T14:27:51.682Z,53.09
2019-02-21T14:32:57.395Z,53.95
2019-02-21T14:35:28.885Z,54.30
2019-02-21T14:37:57.965Z,54.70
2019-02-21T14:40:28.923Z,54.88
2019-02-21T14:42:59.703Z,55.05
2019-02-21T14:45:30.206Z,55.29
2019-02-21T14:48:01.047Z,55.42
2019-02-21T14:50:31.500Z,55.34
2019-02-21T14:53:02.946Z,55.35
2019-02-21T14:55:33.876Z,55.46
2019-02-21T14:58:04.524Z,55.37
2019-02-21T15:00:34.614Z,55.57
2019-02-21T15:03:07.925Z,55.60
2019-02-21T15:05:37.612Z,55.60
2019-02-21T15:08:07.472Z,55.66
2019-02-21T15:10:37.623Z,55.96
2019-02-21T15:13:08.285Z,56.17
2019-02-21T15:15:38.698Z,56.30
2019-02-21T15:18:11.221Z,56.33
2019-02-21T15:20:43.445Z,56.18
2019-02-21T15:23:13.939Z,56.37
2019-02-21T15:25:43.817Z,56.69
2019-02-21T15:28:16.757Z,56.20
2019-02-21T15:30:49.654Z,56.00
2019-02-21T15:33:19.309Z,55.84
2019-02-21T15:35:50.810Z,55.56
2019-02-21T15:38:20.657Z,55.52
2019-02-21T15:40:50.582Z,55.71
2019-02-21T15:43:20.972Z,55.50
2019-02-21T15:45:50.687Z,55.56
2019-02-21T15:48:19.057Z,56.03
2019-02-21T15:50:49.906Z,56.32
2019-02-21T15:53:19.796Z,56.61
2019-02-21T15:55:50.647Z,56.74
2019-02-21T15:58:20.462Z,56.71
2019-02-21T16:00:50.318Z,57.00
2019-02-21T16:03:22.544Z,57.12
2019-02-21T16:05:52.394Z,57.31
2019-02-21T16:08:22.835Z,57.78
2019-02-21T16:10:53.526Z,58.03
2019-02-21T16:13:23.649Z,58.02
2019-02-21T16:15:54.677Z,58.21
2019-02-21T16:18:25.526Z,58.56
2019-02-21T16:20:55.913Z,58.98
2019-02-21T16:23:31.571Z,59.36
2019-02-21T16:26:01.553Z,59.52
2019-02-21T16:28:32.862Z,59.51
2019-02-21T16:31:04.331Z,59.82
2019-02-21T16:33:33.424Z,60.11
2019-02-21T16:36:08.525Z,60.30
2019-02-21T16:38:38.987Z,60.36
2019-02-21T16:41:09.641Z,60.49
2019-02-21T16:43:40.074Z,60.37
2019-02-21T16:46:10.510Z,60.72
2019-02-21T16:48:41.193Z,60.53
2019-02-21T16:51:12.603Z,60.64
2019-02-21T16:53:42.959Z,60.79
2019-02-21T16:56:14.347Z,61.08
2019-02-21T16:58:45.268Z,61.22
2019-02-21T17:01:29.993Z,61.50
2019-02-21T17:04:01.469Z,61.53
2019-02-21T17:06:31.302Z,61.30
2019-02-21T17:11:36.642Z,61.60
2019-02-21T17:14:13.427Z,61.50
2019-02-21T17:16:43.811Z,61.54
2019-02-21T17:19:14.240Z,61.46
2019-02-21T17:21:43.308Z,61.34
2019-02-21T17:24:15.669Z,61.65
2019-02-21T17:26:46.020Z,61.55
2019-02-21T17:29:17.527Z,62.00
2019-02-21T17:31:48.874Z,61.80
2019-02-21T17:34:18.582Z,62.00
2019-02-21T17:36:48.549Z,63.05
2019-02-21T17:39:17.893Z,62.95
2019-02-21T17:41:46.158Z,62.42
2019-02-21T17:44:15.236Z,63.45
2019-02-21T17:46:44.081Z,62.88
2019-02-21T17:49:15.637Z,61.73
2019-02-21T17:51:47.872Z,62.30
2019-02-21T17:54:20.363Z,61.86
2019-02-21T17:56:53.300Z,62.12
2019-02-21T17:59:24.725Z,62.57
2019-02-21T18:01:55.124Z,63.03
2019-02-21T18:04:26.007Z,63.84
2019-02-21T18:06:59.247Z,63.90
2019-02-21T18:12:05.266Z,63.74
2019-02-21T18:14:35.279Z,63.81
2019-02-21T18:17:05.548Z,63.73
2019-02-21T18:19:35.257Z,64.15
2019-02-21T18:22:08.497Z,64.02
2019-02-21T18:24:40.481Z,64.06
2019-02-21T18:27:11.865Z,64.16
2019-02-21T18:29:43.822Z,64.18
2019-02-21T18:32:14.325Z,64.16
2019-02-21T18:34:45.717Z,64.25
2019-02-21T18:37:17.008Z,64.32
2019-02-21T18:39:46.862Z,64.62
2019-02-21T18:42:16.653Z,64.74
2019-02-21T18:44:46.310Z,65.54
2019-02-21T18:47:17.646Z,65.20
2019-02-21T18:49:51.794Z,66.04
2019-02-21T18:52:21.462Z,66.85
2019-02-21T18:54:52.723Z,66.86
2019-02-21T18:57:22.430Z,66.86
2019-02-21T18:59:52.463Z,67.57
2019-02-21T19:02:22.818Z,67.22
2019-02-21T19:04:54.292Z,67.18
2019-02-21T19:07:25.684Z,67.18
2019-02-21T19:09:56.134Z,66.83
2019-02-21T19:12:26.471Z,66.64
2019-02-21T19:14:58.367Z,66.81
2019-02-21T19:17:29.797Z,66.94
2019-02-21T19:20:01.103Z,66.65
2019-02-21T19:22:33.188Z,67.29
2019-02-21T19:25:06.023Z,67.46
2019-02-21T19:27:37.708Z,68.44
2019-02-21T19:30:10.051Z,68.67
2019-02-21T19:32:40.484Z,69.41
2019-02-21T19:35:10.962Z,69.41
2019-02-21T19:37:47.035Z,69.28
2019-02-21T19:40:22.286Z,69.24
2019-02-21T19:42:52.863Z,68.77
2019-02-21T19:45:23.509Z,68.49
2019-02-21T19:47:55.666Z,68.27
2019-02-21T19:50:25.891Z,67.92
2019-02-21T19:52:56.342Z,67.81
2019-02-21T19:55:28.356Z,67.70
2019-02-21T19:57:59.149Z,67.47
2019-02-21T20:00:31.439Z,67.39
2019-02-21T20:03:01.124Z,67.21
2019-02-21T20:05:30.851Z,67.25
2019-02-21T20:08:08.691Z,67.28
2019-02-21T20:10:33.214Z,67.43
2019-02-21T20:15:40.631Z,67.17
2019-02-21T20:18:10.227Z,67.68
2019-02-21T20:20:41.655Z,67.46
2019-02-21T20:23:13.155Z,67.35
2019-02-21T20:25:44.528Z,68.38
2019-02-21T20:28:14.544Z,67.17
2019-02-21T20:30:45.200Z,68.07
2019-02-21T20:33:16.474Z,68.24
2019-02-21T20:35:48.593Z,67.38
2019-02-21T20:38:31.650Z,67.91
2019-02-21T20:40:54.379Z,68.15
2019-02-21T20:43:24.151Z,67.73
2019-02-21T20:45:55.407Z,67.74
2019-02-21T20:48:25.732Z,68.11
2019-02-21T20:50:57.133Z,68.19
2019-02-21T20:53:27.568Z,68.24
2019-02-21T20:55:59.906Z,68.62
2019-02-21T20:58:33.326Z,68.61
2019-02-21T21:03:40.474Z,69.39
2019-02-21T21:06:11.083Z,69.59
2019-02-21T21:08:44.322Z,69.85
2019-02-21T21:13:49.659Z,70.12
2019-02-21T21:16:20.815Z,70.75
2019-02-21T21:18:54.350Z,70.92
2019-02-21T21:21:26.482Z,70.94
2019-02-21T21:23:57.015Z,70.67
2019-02-21T21:31:36.076Z,70.26
2019-02-21T21:34:07.311Z,70.21
2019-02-21T21:36:40.151Z,70.34
2019-02-21T21:39:10.536Z,70.52
2019-02-21T21:41:41.332Z,70.23
2019-02-21T21:44:10.949Z,69.91
2019-02-21T21:46:40.109Z,69.58
2019-02-21T21:49:11.573Z,69.41
2019-02-21T21:51:42.926Z,69.02
2019-02-21T21:54:13.122Z,69.11
2019-02-21T21:56:42.654Z,68.98
2019-02-21T21:59:12.256Z,68.89
2019-02-21T22:01:40.795Z,69.06
2019-02-21T22:04:11.473Z,69.15
2019-02-21T22:06:42.259Z,69.33
2019-02-21T22:09:13.197Z,69.56
2019-02-21T22:11:43.085Z,69.35
2019-02-21T22:14:13.872Z,68.88
2019-02-21T22:16:44.628Z,68.90
2019-02-21T22:19:15.406Z,68.64
2019-02-21T22:21:46.787Z,68.46
2019-02-21T22:24:16.584Z,68.43
2019-02-21T22:26:47.183Z,69.04
2019-02-21T22:29:18.099Z,69.24
2019-02-21T22:31:50.160Z,69.26
2019-02-21T22:34:20.545Z,69.35
2019-02-21T22:36:51.153Z,70.00
2019-02-21T22:39:23.765Z,69.00
2019-02-21T22:41:54.650Z,69.50
2019-02-21T22:44:26.035Z,70.08
2019-02-21T22:46:57.407Z,69.98
2019-02-21T22:49:27.984Z,69.45
2019-02-21T22:51:57.060Z,69.84
2019-02-21T22:54:29.332Z,70.73
2019-02-21T22:57:01.904Z,70.33
2019-02-21T22:59:32.307Z,71.05
2019-02-21T23:04:41.039Z,71.89
2019-02-21T23:07:14.339Z,72.53
2019-02-21T23:09:44.161Z,72.93
2019-02-21T23:12:16.974Z,72.00
2019-02-21T23:14:50.100Z,72.25
2019-02-21T23:17:21.479Z,72.03
2019-02-21T23:19:51.347Z,72.49
2019-02-21T23:22:21.864Z,72.97
2019-02-21T23:24:52.639Z,72.99
2019-02-21T23:27:22.308Z,73.19
2019-02-21T23:29:53.176Z,73.83
2019-02-21T23:32:27.014Z,73.70
2019-02-21T23:34:58.371Z,73.43
2019-02-21T23:37:28.801Z,73.42
2019-02-21T23:39:59.209Z,73.44
2019-02-21T23:42:29.600Z,73.48
2019-02-21T23:45:02.261Z,73.76
2019-02-21T23:47:32.624Z,74.05
2019-02-21T23:50:01.945Z,74.45
2019-02-21T23:52:33.401Z,73.81
2019-02-21T23:55:03.136Z,73.25
2019-02-21T23:57:34.227Z,73.32
